sensor_id;sensor_type;location;lat;lon;timestamp;pressure;altitude;pressure_sealevel;temperature;humidity
16834;BME280;8533;48.426;10.868;2023-02-16T00:01:29;97216.51;;;-1.57;100.00
16834;BME280;8533;48.426;10.868;2023-02-16T00:03:57;97208.55;;;-1.54;100.00
16834;BME280;8533;48.426;10.868;2023-02-16T00:06:26;97211.11;;;-1.54;100.00
16834;BME280;8533;48.426;10.868;2023-02-16T00:08:55;97211.88;;;-1.54;100.00
16834;BME280;8533;48.426;10.868;2023-02-16T00:11:31;97209.19;;;-1.52;100.00
16834;BME280;8533;48.426;10.868;2023-02-16T00:14:17;97203.24;;;-1.52;100.00
16834;BME280;8533;48.426;10.868;2023-02-16T00:16:52;97202.73;;;-1.56;100.00
16834;BME280;8533;48.426;10.868;2023-02-16T00:19:39;97205.72;;;-1.61;100.00
16834;BME280;8533;48.426;10.868;2023-02-16T00:22:08;97198.80;;;-1.64;100.00
16834;BME280;8533;48.426;10.868;2023-02-16T00:27:14;97201.84;;;-1.65;100.00
16834;BME280;8533;48.426;10.868;2023-02-16T00:29:39;97194.92;;;-1.78;100.00
16834;BME280;8533;48.426;10.868;2023-02-16T00:32:09;97191.15;;;-1.87;100.00
16834;BME280;8533;48.426;10.868;2023-02-16T00:34:43;97191.66;;;-2.21;100.00
16834;BME280;8533;48.426;10.868;2023-02-16T00:37:09;97189.01;;;-2.15;100.00
16834;BME280;8533;48.426;10.868;2023-02-16T00:39:39;97192.45;;;-2.11;100.00
16834;BME280;8533;48.426;10.868;2023-02-16T00:42:21;97207.75;;;-2.15;100.00
16834;BME280;8533;48.426;10.868;2023-02-16T00:44:51;97210.05;;;-2.12;100.00
16834;BME280;8533;48.426;10.868;2023-02-16T00:47:42;97203.08;;;-2.06;100.00
16834;BME280;8533;48.426;10.868;2023-02-16T00:50:25;97206.79;;;-2.04;100.00
16834;BME280;8533;48.426;10.868;2023-02-16T00:52:52;97199.03;;;-2.08;100.00
16834;BME280;8533;48.426;10.868;2023-02-16T00:55:21;97199.57;;;-2.05;100.00
16834;BME280;8533;48.426;10.868;2023-02-16T01:00:41;97201.19;;;-2.04;100.00
16834;BME280;8533;48.426;10.868;2023-02-16T01:03:13;97205.88;;;-1.99;100.00
16834;BME280;8533;48.426;10.868;2023-02-16T01:05:40;97200.76;;;-1.99;100.00
16834;BME280;8533;48.426;10.868;2023-02-16T01:08:13;97197.45;;;-1.96;100.00
16834;BME280;8533;48.426;10.868;2023-02-16T01:11:03;97196.94;;;-2.09;100.00
16834;BME280;8533;48.426;10.868;2023-02-16T01:13:37;97201.55;;;-2.12;100.00
16834;BME280;8533;48.426;10.868;2023-02-16T01:16:21;97193.77;;;-2.07;100.00
16834;BME280;8533;48.426;10.868;2023-02-16T01:18:43;97193.84;;;-2.03;100.00
16834;BME280;8533;48.426;10.868;2023-02-16T01:21:10;97194.45;;;-2.05;100.00
16834;BME280;8533;48.426;10.868;2023-02-16T01:23:39;97193.88;;;-1.99;100.00
16834;BME280;8533;48.426;10.868;2023-02-16T01:26:11;97184.37;;;-2.02;100.00
16834;BME280;8533;48.426;10.868;2023-02-16T01:28:39;97185.04;;;-2.00;100.00
16834;BME280;8533;48.426;10.868;2023-02-16T01:31:09;97180.59;;;-1.98;100.00
16834;BME280;8533;48.426;10.868;2023-02-16T01:33:37;97174.66;;;-1.99;100.00
16834;BME280;8533;48.426;10.868;2023-02-16T01:36:05;97177.42;;;-1.96;100.00
16834;BME280;8533;48.426;10.868;2023-02-16T01:38:33;97174.22;;;-1.94;100.00
16834;BME280;8533;48.426;10.868;2023-02-16T01:41:21;97173.51;;;-2.00;100.00
16834;BME280;8533;48.426;10.868;2023-02-16T01:43:58;97174.98;;;-2.11;100.00
16834;BME280;8533;48.426;10.868;2023-02-16T01:46:35;97176.10;;;-2.10;100.00
16834;BME280;8533;48.426;10.868;2023-02-16T01:49:00;97170.06;;;-2.18;100.00
16834;BME280;8533;48.426;10.868;2023-02-16T01:51:33;97175.19;;;-2.18;100.00
16834;BME280;8533;48.426;10.868;2023-02-16T01:54:07;97174.45;;;-2.15;100.00
16834;BME280;8533;48.426;10.868;2023-02-16T01:56:40;97167.61;;;-2.10;100.00
16834;BME280;8533;48.426;10.868;2023-02-16T01:59:10;97163.97;;;-2.08;100.00
16834;BME280;8533;48.426;10.868;2023-02-16T02:01:39;97161.27;;;-2.06;100.00
16834;BME280;8533;48.426;10.868;2023-02-16T02:07:28;97164.20;;;-2.01;100.00
16834;BME280;8533;48.426;10.868;2023-02-16T02:09:56;97164.41;;;-1.99;100.00
16834;BME280;8533;48.426;10.868;2023-02-16T02:12:31;97164.61;;;-1.96;100.00
16834;BME280;8533;48.426;10.868;2023-02-16T02:14:56;97159.28;;;-1.99;100.00
16834;BME280;8533;48.426;10.868;2023-02-16T02:17:23;97154.76;;;-2.01;100.00
16834;BME280;8533;48.426;10.868;2023-02-16T02:20:02;97154.02;;;-1.97;100.00
16834;BME280;8533;48.426;10.868;2023-02-16T02:25:24;97148.08;;;-1.98;100.00
16834;BME280;8533;48.426;10.868;2023-02-16T02:28:08;97146.66;;;-1.96;100.00
16834;BME280;8533;48.426;10.868;2023-02-16T02:36:20;97144.38;;;-2.13;100.00
16834;BME280;8533;48.426;10.868;2023-02-16T02:39:43;97147.27;;;-2.12;100.00
16834;BME280;8533;48.426;10.868;2023-02-16T02:47:51;97156.74;;;-2.45;100.00
16834;BME280;8533;48.426;10.868;2023-02-16T02:50:36;97156.98;;;-2.62;100.00
16834;BME280;8533;48.426;10.868;2023-02-16T02:53:07;97164.87;;;-2.59;100.00
16834;BME280;8533;48.426;10.868;2023-02-16T02:55:37;97158.51;;;-2.55;100.00
16834;BME280;8533;48.426;10.868;2023-02-16T02:58:25;97159.92;;;-2.57;100.00
16834;BME280;8533;48.426;10.868;2023-02-16T03:01:12;97165.47;;;-2.61;100.00
16834;BME280;8533;48.426;10.868;2023-02-16T03:03:45;97160.83;;;-2.72;100.00
16834;BME280;8533;48.426;10.868;2023-02-16T03:06:19;97155.59;;;-2.80;100.00
16834;BME280;8533;48.426;10.868;2023-02-16T03:08:49;97145.81;;;-2.80;100.00
16834;BME280;8533;48.426;10.868;2023-02-16T03:11:21;97149.39;;;-2.77;100.00
16834;BME280;8533;48.426;10.868;2023-02-16T03:17:02;97128.92;;;-2.87;100.00
16834;BME280;8533;48.426;10.868;2023-02-16T03:19:16;97127.38;;;-2.84;100.00
16834;BME280;8533;48.426;10.868;2023-02-16T03:22:02;97126.83;;;-2.78;100.00
16834;BME280;8533;48.426;10.868;2023-02-16T03:28:11;97127.89;;;-2.71;100.00
16834;BME280;8533;48.426;10.868;2023-02-16T03:30:57;97133.82;;;-2.70;100.00
16834;BME280;8533;48.426;10.868;2023-02-16T03:33:27;97142.69;;;-2.64;100.00
16834;BME280;8533;48.426;10.868;2023-02-16T03:35:55;97143.70;;;-2.61;100.00
16834;BME280;8533;48.426;10.868;2023-02-16T03:38:24;97145.97;;;-2.58;100.00
16834;BME280;8533;48.426;10.868;2023-02-16T03:40:52;97147.45;;;-2.56;100.00
16834;BME280;8533;48.426;10.868;2023-02-16T03:43:26;97147.45;;;-2.56;100.00
16834;BME280;8533;48.426;10.868;2023-02-16T03:45:51;97146.86;;;-2.54;100.00
16834;BME280;8533;48.426;10.868;2023-02-16T03:48:19;97153.34;;;-2.59;100.00
16834;BME280;8533;48.426;10.868;2023-02-16T03:50:47;97149.50;;;-2.59;100.00
16834;BME280;8533;48.426;10.868;2023-02-16T03:53:14;97150.16;;;-2.57;100.00
16834;BME280;8533;48.426;10.868;2023-02-16T03:55:44;97147.41;;;-2.60;100.00
16834;BME280;8533;48.426;10.868;2023-02-16T03:58:15;97155.95;;;-2.55;100.00
16834;BME280;8533;48.426;10.868;2023-02-16T04:00:43;97153.13;;;-2.52;100.00
16834;BME280;8533;48.426;10.868;2023-02-16T04:03:11;97155.69;;;-2.52;100.00
16834;BME280;8533;48.426;10.868;2023-02-16T04:05:39;97157.91;;;-2.53;100.00
16834;BME280;8533;48.426;10.868;2023-02-16T04:08:08;97154.94;;;-2.58;100.00
16834;BME280;8533;48.426;10.868;2023-02-16T04:10:37;97158.47;;;-2.59;100.00
16834;BME280;8533;48.426;10.868;2023-02-16T04:13:05;97162.23;;;-2.63;100.00
16834;BME280;8533;48.426;10.868;2023-02-16T04:15:33;97163.85;;;-2.62;100.00
16834;BME280;8533;48.426;10.868;2023-02-16T04:18:00;97173.75;;;-2.63;100.00
16834;BME280;8533;48.426;10.868;2023-02-16T04:20:30;97168.25;;;-2.68;100.00
16834;BME280;8533;48.426;10.868;2023-02-16T04:22:58;97167.09;;;-2.70;100.00
16834;BME280;8533;48.426;10.868;2023-02-16T04:25:26;97173.03;;;-2.70;100.00
16834;BME280;8533;48.426;10.868;2023-02-16T04:27:54;97173.97;;;-2.71;100.00
16834;BME280;8533;48.426;10.868;2023-02-16T04:30:27;97172.69;;;-2.71;100.00
16834;BME280;8533;48.426;10.868;2023-02-16T04:32:55;97174.31;;;-2.70;100.00
16834;BME280;8533;48.426;10.868;2023-02-16T04:35:24;97170.12;;;-2.71;100.00
16834;BME280;8533;48.426;10.868;2023-02-16T04:37:52;97167.23;;;-2.72;100.00
16834;BME280;8533;48.426;10.868;2023-02-16T04:40:19;97166.37;;;-2.76;100.00
16834;BME280;8533;48.426;10.868;2023-02-16T04:42:47;97158.83;;;-2.78;100.00
16834;BME280;8533;48.426;10.868;2023-02-16T04:45:14;97152.30;;;-2.76;100.00
16834;BME280;8533;48.426;10.868;2023-02-16T04:47:42;97146.03;;;-2.78;100.00
16834;BME280;8533;48.426;10.868;2023-02-16T04:50:10;97144.88;;;-2.89;100.00
16834;BME280;8533;48.426;10.868;2023-02-16T04:52:38;97148.38;;;-2.90;100.00
16834;BME280;8533;48.426;10.868;2023-02-16T04:55:07;97141.85;;;-2.88;100.00
16834;BME280;8533;48.426;10.868;2023-02-16T04:57:39;97148.33;;;-2.84;100.00
16834;BME280;8533;48.426;10.868;2023-02-16T05:00:08;97140.44;;;-2.87;100.00
16834;BME280;8533;48.426;10.868;2023-02-16T05:02:39;97142.19;;;-2.87;100.00
16834;BME280;8533;48.426;10.868;2023-02-16T05:05:07;97148.45;;;-2.86;100.00
16834;BME280;8533;48.426;10.868;2023-02-16T05:07:35;97158.83;;;-2.87;100.00
16834;BME280;8533;48.426;10.868;2023-02-16T05:10:02;97154.73;;;-2.84;100.00
16834;BME280;8533;48.426;10.868;2023-02-16T05:12:30;97164.16;;;-2.85;100.00
16834;BME280;8533;48.426;10.868;2023-02-16T05:15:15;97164.80;;;-2.83;100.00
16834;BME280;8533;48.426;10.868;2023-02-16T05:17:43;97162.24;;;-2.83;100.00
16834;BME280;8533;48.426;10.868;2023-02-16T05:20:10;97168.05;;;-2.81;100.00
16834;BME280;8533;48.426;10.868;2023-02-16T05:22:38;97173.84;;;-2.79;100.00
16834;BME280;8533;48.426;10.868;2023-02-16T05:25:06;97180.23;;;-2.79;100.00
16834;BME280;8533;48.426;10.868;2023-02-16T05:27:33;97187.32;;;-2.77;100.00
16834;BME280;8533;48.426;10.868;2023-02-16T05:30:01;97186.69;;;-2.75;100.00
16834;BME280;8533;48.426;10.868;2023-02-16T05:32:28;97180.84;;;-2.81;100.00
16834;BME280;8533;48.426;10.868;2023-02-16T05:34:56;97177.34;;;-2.80;100.00
16834;BME280;8533;48.426;10.868;2023-02-16T05:37:23;97180.71;;;-2.79;100.00
16834;BME280;8533;48.426;10.868;2023-02-16T05:39:51;97184.00;;;-2.83;100.00
16834;BME280;8533;48.426;10.868;2023-02-16T05:42:18;97188.47;;;-2.85;100.00
16834;BME280;8533;48.426;10.868;2023-02-16T05:44:45;97187.66;;;-2.85;100.00
16834;BME280;8533;48.426;10.868;2023-02-16T05:47:13;97194.87;;;-2.85;100.00
16834;BME280;8533;48.426;10.868;2023-02-16T05:49:41;97193.30;;;-2.91;100.00
16834;BME280;8533;48.426;10.868;2023-02-16T05:52:10;97197.89;;;-2.95;100.00
16834;BME280;8533;48.426;10.868;2023-02-16T05:54:38;97195.55;;;-2.92;100.00
16834;BME280;8533;48.426;10.868;2023-02-16T05:57:05;97196.35;;;-2.92;100.00
16834;BME280;8533;48.426;10.868;2023-02-16T05:59:32;97196.22;;;-3.00;100.00
16834;BME280;8533;48.426;10.868;2023-02-16T06:02:00;97208.11;;;-3.04;100.00
16834;BME280;8533;48.426;10.868;2023-02-16T06:04:27;97205.69;;;-3.06;100.00
16834;BME280;8533;48.426;10.868;2023-02-16T06:06:55;97209.95;;;-3.01;100.00
16834;BME280;8533;48.426;10.868;2023-02-16T06:09:22;97209.32;;;-2.99;100.00
16834;BME280;8533;48.426;10.868;2023-02-16T06:11:50;97215.93;;;-2.96;100.00
16834;BME280;8533;48.426;10.868;2023-02-16T06:14:19;97209.28;;;-2.93;100.00
16834;BME280;8533;48.426;10.868;2023-02-16T06:16:48;97210.47;;;-2.97;100.00
16834;BME280;8533;48.426;10.868;2023-02-16T06:19:19;97211.02;;;-2.94;100.00
16834;BME280;8533;48.426;10.868;2023-02-16T06:21:47;97215.39;;;-2.90;100.00
16834;BME280;8533;48.426;10.868;2023-02-16T06:24:15;97220.03;;;-2.90;100.00
16834;BME280;8533;48.426;10.868;2023-02-16T06:26:42;97216.20;;;-2.90;100.00
16834;BME280;8533;48.426;10.868;2023-02-16T06:29:10;97216.33;;;-2.91;100.00
16834;BME280;8533;48.426;10.868;2023-02-16T06:31:37;97217.01;;;-2.89;100.00
16834;BME280;8533;48.426;10.868;2023-02-16T06:34:05;97216.66;;;-2.90;100.00
16834;BME280;8533;48.426;10.868;2023-02-16T06:36:32;97211.20;;;-2.91;100.00
16834;BME280;8533;48.426;10.868;2023-02-16T06:39:00;97214.86;;;-2.94;100.00
16834;BME280;8533;48.426;10.868;2023-02-16T06:41:28;97208.81;;;-2.93;100.00
16834;BME280;8533;48.426;10.868;2023-02-16T06:44:01;97213.30;;;-2.91;100.00
16834;BME280;8533;48.426;10.868;2023-02-16T06:46:29;97219.23;;;-2.90;100.00
16834;BME280;8533;48.426;10.868;2023-02-16T06:48:56;97221.19;;;-2.88;100.00
16834;BME280;8533;48.426;10.868;2023-02-16T06:51:24;97220.13;;;-2.86;100.00
16834;BME280;8533;48.426;10.868;2023-02-16T06:53:51;97227.20;;;-2.84;100.00
16834;BME280;8533;48.426;10.868;2023-02-16T06:56:19;97231.22;;;-2.81;100.00
16834;BME280;8533;48.426;10.868;2023-02-16T06:58:47;97233.86;;;-2.77;100.00
16834;BME280;8533;48.426;10.868;2023-02-16T07:01:14;97229.27;;;-2.74;100.00
16834;BME280;8533;48.426;10.868;2023-02-16T07:03:43;97222.14;;;-2.70;100.00
16834;BME280;8533;48.426;10.868;2023-02-16T07:06:11;97235.67;;;-2.64;100.00
16834;BME280;8533;48.426;10.868;2023-02-16T07:08:38;97233.66;;;-2.60;100.00
16834;BME280;8533;48.426;10.868;2023-02-16T07:11:06;97235.59;;;-2.58;100.00
16834;BME280;8533;48.426;10.868;2023-02-16T07:13:33;97235.06;;;-2.52;100.00
16834;BME280;8533;48.426;10.868;2023-02-16T07:16:05;97239.77;;;-2.48;100.00
16834;BME280;8533;48.426;10.868;2023-02-16T07:18:33;97243.86;;;-2.41;100.00
16834;BME280;8533;48.426;10.868;2023-02-16T07:21:01;97243.13;;;-2.38;100.00
16834;BME280;8533;48.426;10.868;2023-02-16T07:23:29;97241.16;;;-2.30;100.00
16834;BME280;8533;48.426;10.868;2023-02-16T07:25:56;97244.05;;;-2.19;100.00
16834;BME280;8533;48.426;10.868;2023-02-16T07:28:24;97244.77;;;-2.13;100.00
16834;BME280;8533;48.426;10.868;2023-02-16T07:30:52;97243.86;;;-1.99;100.00
16834;BME280;8533;48.426;10.868;2023-02-16T07:33:19;97245.31;;;-1.86;100.00
16834;BME280;8533;48.426;10.868;2023-02-16T07:35:46;97245.73;;;-1.77;100.00
16834;BME280;8533;48.426;10.868;2023-02-16T07:38:15;97238.84;;;-1.77;100.00
16834;BME280;8533;48.426;10.868;2023-02-16T07:40:43;97235.91;;;-1.68;100.00
16834;BME280;8533;48.426;10.868;2023-02-16T07:43:10;97233.55;;;-1.66;100.00
16834;BME280;8533;48.426;10.868;2023-02-16T07:45:38;97238.58;;;-1.60;100.00
16834;BME280;8533;48.426;10.868;2023-02-16T07:48:05;97232.27;;;-1.52;100.00
16834;BME280;8533;48.426;10.868;2023-02-16T07:50:32;97239.78;;;-1.41;100.00
16834;BME280;8533;48.426;10.868;2023-02-16T07:53:01;97236.73;;;-1.27;100.00
16834;BME280;8533;48.426;10.868;2023-02-16T07:55:29;97243.63;;;-1.13;100.00
16834;BME280;8533;48.426;10.868;2023-02-16T07:57:56;97239.66;;;-1.08;100.00
16834;BME280;8533;48.426;10.868;2023-02-16T08:00:24;97244.16;;;-0.92;100.00
16834;BME280;8533;48.426;10.868;2023-02-16T08:02:52;97241.50;;;-1.00;100.00
16834;BME280;8533;48.426;10.868;2023-02-16T08:05:20;97244.34;;;-0.90;100.00
16834;BME280;8533;48.426;10.868;2023-02-16T08:07:48;97239.59;;;-0.81;100.00
16834;BME280;8533;48.426;10.868;2023-02-16T08:10:15;97246.59;;;-0.73;100.00
16834;BME280;8533;48.426;10.868;2023-02-16T08:12:43;97247.02;;;-0.60;100.00
16834;BME280;8533;48.426;10.868;2023-02-16T08:15:10;97252.91;;;-0.46;100.00
16834;BME280;8533;48.426;10.868;2023-02-16T08:17:38;97257.02;;;-0.35;100.00
16834;BME280;8533;48.426;10.868;2023-02-16T08:20:07;97260.80;;;-0.21;100.00
16834;BME280;8533;48.426;10.868;2023-02-16T08:22:35;97256.20;;;-0.14;100.00
16834;BME280;8533;48.426;10.868;2023-02-16T08:25:03;97255.50;;;0.02;100.00
16834;BME280;8533;48.426;10.868;2023-02-16T08:27:30;97258.16;;;0.14;100.00
16834;BME280;8533;48.426;10.868;2023-02-16T08:29:58;97259.06;;;0.31;100.00
16834;BME280;8533;48.426;10.868;2023-02-16T08:32:26;97248.03;;;0.47;100.00
16834;BME280;8533;48.426;10.868;2023-02-16T08:34:53;97255.02;;;0.62;100.00
16834;BME280;8533;48.426;10.868;2023-02-16T08:37:22;97256.63;;;0.67;100.00
16834;BME280;8533;48.426;10.868;2023-02-16T08:39:50;97252.66;;;0.77;100.00
16834;BME280;8533;48.426;10.868;2023-02-16T08:42:19;97248.52;;;0.92;100.00
16834;BME280;8533;48.426;10.868;2023-02-16T08:44:46;97247.28;;;1.12;100.00
16834;BME280;8533;48.426;10.868;2023-02-16T08:47:13;97243.11;;;1.20;100.00
16834;BME280;8533;48.426;10.868;2023-02-16T08:49:42;97249.41;;;1.41;100.00
16834;BME280;8533;48.426;10.868;2023-02-16T08:52:11;97251.67;;;1.57;100.00
16834;BME280;8533;48.426;10.868;2023-02-16T08:54:39;97248.14;;;1.70;100.00
16834;BME280;8533;48.426;10.868;2023-02-16T08:57:06;97242.65;;;1.85;100.00
16834;BME280;8533;48.426;10.868;2023-02-16T08:59:34;97244.55;;;1.99;100.00
16834;BME280;8533;48.426;10.868;2023-02-16T09:02:02;97243.92;;;2.01;100.00
16834;BME280;8533;48.426;10.868;2023-02-16T09:04:30;97244.52;;;2.11;100.00
16834;BME280;8533;48.426;10.868;2023-02-16T09:06:58;97248.54;;;2.22;100.00
16834;BME280;8533;48.426;10.868;2023-02-16T09:09:26;97243.36;;;2.34;100.00
16834;BME280;8533;48.426;10.868;2023-02-16T09:11:53;97235.91;;;2.43;100.00
16834;BME280;8533;48.426;10.868;2023-02-16T09:14:22;97235.86;;;2.59;100.00
16834;BME280;8533;48.426;10.868;2023-02-16T09:16:50;97239.02;;;2.74;100.00
16834;BME280;8533;48.426;10.868;2023-02-16T09:19:19;97241.80;;;2.99;100.00
16834;BME280;8533;48.426;10.868;2023-02-16T09:21:48;97234.28;;;3.16;100.00
16834;BME280;8533;48.426;10.868;2023-02-16T09:24:20;97237.09;;;3.29;100.00
16834;BME280;8533;48.426;10.868;2023-02-16T09:26:47;97239.63;;;3.37;100.00
16834;BME280;8533;48.426;10.868;2023-02-16T09:29:15;97233.44;;;3.42;100.00
16834;BME280;8533;48.426;10.868;2023-02-16T09:31:43;97233.20;;;3.52;100.00
16834;BME280;8533;48.426;10.868;2023-02-16T09:34:20;97231.45;;;3.71;100.00
16834;BME280;8533;48.426;10.868;2023-02-16T09:36:45;97235.28;;;3.94;100.00
16834;BME280;8533;48.426;10.868;2023-02-16T09:39:13;97234.99;;;4.22;100.00
16834;BME280;8533;48.426;10.868;2023-02-16T09:47:03;97242.02;;;4.87;100.00
16834;BME280;8533;48.426;10.868;2023-02-16T09:49:39;97242.86;;;4.98;100.00
16834;BME280;8533;48.426;10.868;2023-02-16T09:52:08;97237.74;;;5.05;100.00
16834;BME280;8533;48.426;10.868;2023-02-16T10:02:48;97226.09;;;5.80;100.00
16834;BME280;8533;48.426;10.868;2023-02-16T10:05:19;97221.09;;;5.99;100.00
16834;BME280;8533;48.426;10.868;2023-02-16T10:08:04;97219.01;;;6.16;100.00
16834;BME280;8533;48.426;10.868;2023-02-16T10:11:02;97225.36;;;6.24;100.00
16834;BME280;8533;48.426;10.868;2023-02-16T10:13:36;97220.35;;;6.40;100.00
16834;BME280;8533;48.426;10.868;2023-02-16T10:16:05;97221.03;;;6.55;100.00
16834;BME280;8533;48.426;10.868;2023-02-16T10:18:38;97219.26;;;6.62;100.00
16834;BME280;8533;48.426;10.868;2023-02-16T10:21:12;97217.39;;;6.73;100.00
16834;BME280;8533;48.426;10.868;2023-02-16T10:23:47;97213.61;;;6.76;100.00
16834;BME280;8533;48.426;10.868;2023-02-16T10:28:48;97221.20;;;7.01;100.00
16834;BME280;8533;48.426;10.868;2023-02-16T10:39:05;97204.88;;;7.34;94.17
16834;BME280;8533;48.426;10.868;2023-02-16T10:41:35;97199.67;;;7.40;93.38
16834;BME280;8533;48.426;10.868;2023-02-16T10:44:14;97203.09;;;7.47;92.93
16834;BME280;8533;48.426;10.868;2023-02-16T10:46:42;97204.61;;;7.46;91.05
16834;BME280;8533;48.426;10.868;2023-02-16T10:49:18;97203.58;;;7.47;90.98
16834;BME280;8533;48.426;10.868;2023-02-16T10:51:48;97204.20;;;7.49;90.03
16834;BME280;8533;48.426;10.868;2023-02-16T10:54:19;97194.00;;;7.60;88.87
16834;BME280;8533;48.426;10.868;2023-02-16T10:56:50;97197.59;;;7.79;87.59
16834;BME280;8533;48.426;10.868;2023-02-16T10:59:21;97196.90;;;7.81;88.26
16834;BME280;8533;48.426;10.868;2023-02-16T11:01:54;97195.28;;;7.87;86.77
16834;BME280;8533;48.426;10.868;2023-02-16T11:04:39;97195.47;;;8.05;86.29
16834;BME280;8533;48.426;10.868;2023-02-16T11:07:18;97193.06;;;8.17;83.85
16834;BME280;8533;48.426;10.868;2023-02-16T11:09:42;97191.85;;;8.26;84.03
16834;BME280;8533;48.426;10.868;2023-02-16T11:14:52;97178.75;;;8.52;82.13
16834;BME280;8533;48.426;10.868;2023-02-16T11:17:19;97161.30;;;8.59;81.22
16834;BME280;8533;48.426;10.868;2023-02-16T11:19:54;97172.60;;;8.85;80.68
16834;BME280;8533;48.426;10.868;2023-02-16T11:22:34;97171.66;;;8.95;79.58
16834;BME280;8533;48.426;10.868;2023-02-16T11:27:52;97169.41;;;9.05;77.04
16834;BME280;8533;48.426;10.868;2023-02-16T11:30:26;97164.83;;;9.16;75.46
16834;BME280;8533;48.426;10.868;2023-02-16T11:32:50;97150.22;;;9.24;76.11
16834;BME280;8533;48.426;10.868;2023-02-16T11:35:18;97155.75;;;9.34;75.69
16834;BME280;8533;48.426;10.868;2023-02-16T11:37:46;97150.78;;;9.42;74.51
16834;BME280;8533;48.426;10.868;2023-02-16T11:40:28;97147.55;;;9.46;74.01
16834;BME280;8533;48.426;10.868;2023-02-16T11:42:58;97141.26;;;9.54;74.13
16834;BME280;8533;48.426;10.868;2023-02-16T11:45:34;97137.28;;;9.61;72.91
16834;BME280;8533;48.426;10.868;2023-02-16T11:48:06;97130.63;;;9.65;72.85
16834;BME280;8533;48.426;10.868;2023-02-16T11:50:35;97130.09;;;9.81;71.79
16834;BME280;8533;48.426;10.868;2023-02-16T11:53:13;97131.97;;;9.92;70.61
16834;BME280;8533;48.426;10.868;2023-02-16T11:55:46;97120.00;;;9.93;68.91
16834;BME280;8533;48.426;10.868;2023-02-16T11:58:20;97120.16;;;10.08;66.81
16834;BME280;8533;48.426;10.868;2023-02-16T12:00:54;97120.86;;;10.21;67.37
16834;BME280;8533;48.426;10.868;2023-02-16T12:08:51;97109.73;;;10.44;64.81
16834;BME280;8533;48.426;10.868;2023-02-16T12:11:43;97102.38;;;10.62;64.10
16834;BME280;8533;48.426;10.868;2023-02-16T12:16:59;97096.55;;;10.69;62.57
16834;BME280;8533;48.426;10.868;2023-02-16T12:19:47;97093.30;;;10.85;60.82
16834;BME280;8533;48.426;10.868;2023-02-16T12:22:31;97093.37;;;11.08;58.60
16834;BME280;8533;48.426;10.868;2023-02-16T12:25:18;97092.03;;;11.18;57.92
16834;BME280;8533;48.426;10.868;2023-02-16T12:36:24;97082.80;;;12.06;54.58
16834;BME280;8533;48.426;10.868;2023-02-16T12:39:06;97071.36;;;12.23;53.47
16834;BME280;8533;48.426;10.868;2023-02-16T12:41:48;97068.52;;;12.39;51.82
16834;BME280;8533;48.426;10.868;2023-02-16T12:44:26;97056.63;;;12.63;52.65
16834;BME280;8533;48.426;10.868;2023-02-16T12:46:55;97058.36;;;12.71;51.88
16834;BME280;8533;48.426;10.868;2023-02-16T12:49:27;97055.77;;;12.88;52.62
16834;BME280;8533;48.426;10.868;2023-02-16T12:52:02;97057.27;;;12.70;51.36
16834;BME280;8533;48.426;10.868;2023-02-16T12:54:35;97055.91;;;12.67;51.24
16834;BME280;8533;48.426;10.868;2023-02-16T12:57:04;97050.84;;;12.49;50.50
16834;BME280;8533;48.426;10.868;2023-02-16T12:59:53;97051.13;;;12.50;51.51
16834;BME280;8533;48.426;10.868;2023-02-16T13:02:25;97047.84;;;12.43;51.34
16834;BME280;8533;48.426;10.868;2023-02-16T13:05:05;97045.50;;;12.58;51.63
16834;BME280;8533;48.426;10.868;2023-02-16T13:07:39;97046.34;;;12.75;50.34
16834;BME280;8533;48.426;10.868;2023-02-16T13:10:22;97038.80;;;12.79;49.99
16834;BME280;8533;48.426;10.868;2023-02-16T13:12:56;97038.70;;;12.88;49.32
16834;BME280;8533;48.426;10.868;2023-02-16T13:15:29;97040.55;;;12.90;49.10
16834;BME280;8533;48.426;10.868;2023-02-16T13:18:16;97038.20;;;13.05;49.23
16834;BME280;8533;48.426;10.868;2023-02-16T13:20:47;97040.53;;;13.18;48.89
16834;BME280;8533;48.426;10.868;2023-02-16T13:23:37;97028.99;;;13.36;47.15
16834;BME280;8533;48.426;10.868;2023-02-16T13:31:52;97023.65;;;13.67;46.94
16834;BME280;8533;48.426;10.868;2023-02-16T13:37:17;97025.46;;;13.47;46.42
16834;BME280;8533;48.426;10.868;2023-02-16T13:40:17;97018.39;;;13.67;47.10
16834;BME280;8533;48.426;10.868;2023-02-16T13:43:04;97012.38;;;13.69;45.99
16834;BME280;8533;48.426;10.868;2023-02-16T13:45:36;97009.90;;;13.62;46.25
16834;BME280;8533;48.426;10.868;2023-02-16T13:49:05;97009.95;;;13.87;46.42
16834;BME280;8533;48.426;10.868;2023-02-16T13:50:42;97006.94;;;13.75;46.19
16834;BME280;8533;48.426;10.868;2023-02-16T13:53:17;97006.84;;;13.68;45.91
16834;BME280;8533;48.426;10.868;2023-02-16T13:55:45;97005.66;;;13.78;45.72
16834;BME280;8533;48.426;10.868;2023-02-16T14:00:47;97008.07;;;13.82;45.91
16834;BME280;8533;48.426;10.868;2023-02-16T14:05:51;97009.34;;;13.80;43.95
16834;BME280;8533;48.426;10.868;2023-02-16T14:08:29;97001.58;;;13.68;43.22
16834;BME280;8533;48.426;10.868;2023-02-16T14:10:57;96997.08;;;13.66;45.29
16834;BME280;8533;48.426;10.868;2023-02-16T14:13:42;97002.14;;;13.70;44.23
16834;BME280;8533;48.426;10.868;2023-02-16T14:21:45;96990.95;;;13.41;44.84
16834;BME280;8533;48.426;10.868;2023-02-16T14:24:12;96991.00;;;13.44;44.94
16834;BME280;8533;48.426;10.868;2023-02-16T14:26:55;96991.52;;;13.43;43.56
16834;BME280;8533;48.426;10.868;2023-02-16T14:32:27;96996.41;;;13.04;44.25
16834;BME280;8533;48.426;10.868;2023-02-16T14:35:27;96999.03;;;12.87;44.62
16834;BME280;8533;48.426;10.868;2023-02-16T14:38:06;96996.41;;;12.56;44.38
16834;BME280;8533;48.426;10.868;2023-02-16T14:43:50;96987.81;;;12.60;44.21
16834;BME280;8533;48.426;10.868;2023-02-16T14:45:56;97004.39;;;12.78;43.87
16834;BME280;8533;48.426;10.868;2023-02-16T14:57:43;97004.59;;;12.90;43.65
16834;BME280;8533;48.426;10.868;2023-02-16T15:00:13;97000.27;;;12.68;44.81
16834;BME280;8533;48.426;10.868;2023-02-16T15:02:53;97005.17;;;12.47;45.39
16834;BME280;8533;48.426;10.868;2023-02-16T15:05:21;97006.32;;;12.26;46.30
16834;BME280;8533;48.426;10.868;2023-02-16T15:07:50;97005.01;;;12.11;46.18